Time;durP1;ratioP1;P1;durP2;ratioP2;P2;SDS_P1;SDS_P2;PMS_P1;PMS_P2;Temp;Humidity;BMP_temperature;BMP_pressure;BME280_temperature;BME280_humidity;BME280_pressure;Samples;Min_cycle;Max_cycle;Signal;HPM_P1;HPM_P2
2023/05/14 00:01:24;;;;;;;21.53;15.27;;;12.00;99.90;;;;;;4994476;28;20038;-69
2023/05/14 00:03:50;;;;;;;22.23;15.27;;;12.00;99.90;;;;;;4993369;28;20050;-69
2023/05/14 00:06:16;;;;;;;19.87;14.63;;;11.90;99.90;;;;;;4975945;28;20531;-69
2023/05/14 00:08:41;;;;;;;20.40;15.20;;;11.90;99.90;;;;;;4978412;28;20136;-69
2023/05/14 00:11:07;;;;;;;22.80;14.97;;;11.90;99.90;;;;;;4995289;28;20053;-69
2023/05/14 00:13:34;;;;;;;21.13;14.27;;;11.90;99.90;;;;;;4994407;28;20655;-69
2023/05/14 00:16:00;;;;;;;21.13;15.10;;;11.90;99.90;;;;;;4975663;28;20074;-69
2023/05/14 00:18:26;;;;;;;21.33;14.43;;;11.90;99.90;;;;;;4999051;28;20146;-69
2023/05/14 00:20:53;;;;;;;23.87;14.03;;;11.90;99.90;;;;;;4978331;28;20069;-69
2023/05/14 00:23:22;;;;;;;19.27;13.83;;;11.90;99.90;;;;;;4976321;28;20055;-69
2023/05/14 00:25:49;;;;;;;21.30;13.97;;;11.80;99.90;;;;;;4993774;28;20077;-69
2023/05/14 00:28:15;;;;;;;22.40;13.97;;;11.80;99.90;;;;;;4998615;28;20103;-69
2023/05/14 00:30:41;;;;;;;23.23;13.80;;;11.80;99.90;;;;;;4997955;28;20050;-69
2023/05/14 00:33:07;;;;;;;23.13;14.60;;;11.70;99.90;;;;;;4980640;28;20543;-69
2023/05/14 00:35:34;;;;;;;20.20;13.87;;;11.70;99.90;;;;;;4994140;28;20038;-69
2023/05/14 00:38:01;;;;;;;23.47;15.07;;;11.70;99.90;;;;;;4989717;28;20080;-69
2023/05/14 00:40:27;;;;;;;22.00;14.90;;;11.70;99.90;;;;;;4996384;28;20461;-69
2023/05/14 00:42:54;;;;;;;22.13;14.67;;;11.70;99.90;;;;;;4994981;28;20081;-69
2023/05/14 00:45:20;;;;;;;22.63;14.63;;;11.70;99.90;;;;;;4997159;28;20035;-68
2023/05/14 00:47:46;;;;;;;27.67;14.73;;;11.70;99.90;;;;;;4960991;28;20052;-69
2023/05/14 00:50:13;;;;;;;23.47;15.83;;;11.70;99.90;;;;;;4997161;28;20141;-69
2023/05/14 00:52:40;;;;;;;19.30;14.23;;;11.60;99.90;;;;;;4994109;28;20045;-69
2023/05/14 00:55:06;;;;;;;22.77;15.03;;;11.60;99.90;;;;;;4997406;28;20068;-68
2023/05/14 00:57:33;;;;;;;22.00;14.90;;;11.60;99.90;;;;;;4975111;28;20043;-69
2023/05/14 00:59:59;;;;;;;24.03;15.00;;;11.60;99.90;;;;;;4996571;28;20137;-70
2023/05/14 01:02:25;;;;;;;20.77;15.00;;;11.60;99.90;;;;;;4994097;28;20041;-69
2023/05/14 01:04:51;;;;;;;22.67;14.80;;;11.60;99.90;;;;;;4959345;28;20702;-69
2023/05/14 01:07:31;;;;;;;24.17;15.33;;;11.50;99.90;;;;;;4992849;28;20046;-69
2023/05/14 01:10:15;;;;;;;26.63;15.40;;;11.50;99.90;;;;;;4992763;28;20597;-69
2023/05/14 01:13:03;;;;;;;23.03;15.40;;;11.50;99.90;;;;;;4993626;28;20046;-69
2023/05/14 01:15:32;;;;;;;19.93;14.90;;;11.50;99.90;;;;;;4998831;28;20050;-69
2023/05/14 01:18:06;;;;;;;22.83;15.43;;;11.40;99.90;;;;;;4978729;28;20034;-69
2023/05/14 01:20:31;;;;;;;24.97;15.80;;;11.40;99.90;;;;;;4991082;28;20046;-69
2023/05/14 01:22:57;;;;;;;25.10;15.53;;;11.40;99.90;;;;;;5006744;28;20072;-69
2023/05/14 01:25:23;;;;;;;23.80;16.07;;;11.40;99.90;;;;;;4963294;28;20049;-68
2023/05/14 01:27:57;;;;;;;20.33;14.53;;;11.30;99.90;;;;;;4975353;28;20068;-69
2023/05/14 01:30:36;;;;;;;22.97;16.10;;;11.30;99.90;;;;;;4983983;28;20053;-69
2023/05/14 01:33:10;;;;;;;23.73;16.47;;;11.30;99.90;;;;;;4996097;28;20061;-69
2023/05/14 01:35:36;;;;;;;20.73;15.67;;;11.30;99.90;;;;;;4981444;28;20057;-69
2023/05/14 01:38:05;;;;;;;24.23;15.67;;;11.30;99.90;;;;;;4965098;28;20046;-69
2023/05/14 01:40:32;;;;;;;26.57;16.13;;;11.30;99.90;;;;;;5000118;28;20053;-69
2023/05/14 01:42:59;;;;;;;24.83;15.77;;;11.20;99.90;;;;;;5014964;28;20046;-69
2023/05/14 01:45:25;;;;;;;23.97;16.47;;;11.20;99.90;;;;;;5013128;28;20091;-69
2023/05/14 01:47:52;;;;;;;22.60;16.57;;;11.20;99.90;;;;;;4998534;28;20115;-69
2023/05/14 01:50:18;;;;;;;26.57;16.77;;;11.10;99.90;;;;;;4985188;28;20045;-69
2023/05/14 01:52:44;;;;;;;27.77;17.93;;;11.10;99.90;;;;;;4980012;28;20070;-69
2023/05/14 01:55:10;;;;;;;25.23;17.43;;;11.10;99.90;;;;;;4996075;28;20076;-69
2023/05/14 01:57:36;;;;;;;24.30;17.73;;;11.10;99.90;;;;;;4977019;28;20046;-69
2023/05/14 02:00:03;;;;;;;27.67;17.53;;;11.00;99.90;;;;;;4996195;28;20715;-69
2023/05/14 02:02:28;;;;;;;24.77;17.80;;;11.00;99.90;;;;;;4983208;28;20053;-69
2023/05/14 02:04:54;;;;;;;25.20;17.73;;;11.00;99.90;;;;;;4976196;28;20056;-69
2023/05/14 02:07:20;;;;;;;26.97;18.37;;;11.00;99.90;;;;;;4998488;28;20046;-71
2023/05/14 02:09:45;;;;;;;27.73;18.83;;;11.00;99.90;;;;;;4998601;28;20092;-69
2023/05/14 02:12:11;;;;;;;31.30;18.63;;;11.00;99.90;;;;;;4994785;28;20061;-69
2023/05/14 02:14:37;;;;;;;24.73;17.43;;;11.00;99.90;;;;;;5012242;28;20070;-69
2023/05/14 02:17:03;;;;;;;24.93;17.63;;;11.00;99.90;;;;;;4997224;28;20133;-69
2023/05/14 02:19:29;;;;;;;25.40;17.63;;;11.10;99.90;;;;;;4963482;28;20575;-69
2023/05/14 02:21:55;;;;;;;25.00;17.43;;;11.10;99.90;;;;;;4998888;28;20042;-69
2023/05/14 02:24:21;;;;;;;26.20;17.30;;;11.10;99.90;;;;;;5013065;28;20057;-69
2023/05/14 02:26:47;;;;;;;24.57;16.47;;;11.10;99.90;;;;;;4980796;28;20034;-69
2023/05/14 02:29:12;;;;;;;22.77;16.80;;;11.20;99.90;;;;;;4957569;28;20118;-69
2023/05/14 02:31:38;;;;;;;22.93;16.43;;;11.10;99.90;;;;;;4999173;28;20081;-69
2023/05/14 02:34:05;;;;;;;26.50;16.70;;;11.20;99.90;;;;;;4978617;28;20161;-69
2023/05/14 02:36:31;;;;;;;26.33;17.57;;;11.20;99.90;;;;;;4995060;28;20088;-69
2023/05/14 02:38:59;;;;;;;24.67;16.20;;;11.20;99.90;;;;;;4993778;28;20048;-69
2023/05/14 02:41:26;;;;;;;25.43;16.37;;;11.20;99.90;;;;;;4999736;28;20093;-69
2023/05/14 02:43:52;;;;;;;24.00;17.00;;;11.20;99.90;;;;;;4994826;28;20046;-69
2023/05/14 02:46:18;;;;;;;23.43;16.70;;;11.20;99.90;;;;;;4995570;28;20077;-69
2023/05/14 02:48:44;;;;;;;25.80;16.47;;;11.20;99.90;;;;;;4996991;28;20192;-69
2023/05/14 02:51:09;;;;;;;25.10;17.47;;;11.10;99.90;;;;;;4998378;28;20046;-70
2023/05/14 02:53:35;;;;;;;25.77;17.40;;;11.10;99.90;;;;;;4979817;28;20121;-69
2023/05/14 02:56:01;;;;;;;28.07;17.47;;;11.10;99.90;;;;;;4995741;28;20276;-69
2023/05/14 02:58:27;;;;;;;26.83;16.90;;;11.00;99.90;;;;;;4993841;28;20041;-69
2023/05/14 03:00:52;;;;;;;26.83;17.67;;;11.00;99.90;;;;;;4998462;28;20045;-69
2023/05/14 03:03:18;;;;;;;26.97;17.97;;;10.90;99.90;;;;;;4979109;28;20308;-69
2023/05/14 03:05:44;;;;;;;27.83;18.57;;;10.80;99.90;;;;;;4980336;28;20345;-69
2023/05/14 03:08:10;;;;;;;25.37;18.53;;;10.80;99.90;;;;;;4995146;28;20363;-69
2023/05/14 03:10:36;;;;;;;32.03;18.87;;;10.80;99.90;;;;;;4996345;28;20354;-69
2023/05/14 03:13:02;;;;;;;28.63;19.00;;;10.80;99.90;;;;;;4982867;28;20173;-69
2023/05/14 03:15:28;;;;;;;32.77;19.20;;;10.80;99.90;;;;;;4985220;28;20049;-69
2023/05/14 03:17:53;;;;;;;27.53;19.37;;;10.80;99.90;;;;;;4999933;28;20042;-69
2023/05/14 03:20:19;;;;;;;26.67;19.70;;;10.80;99.90;;;;;;4986103;28;20127;-69
2023/05/14 03:22:45;;;;;;;31.90;20.13;;;10.80;99.90;;;;;;5015171;28;20787;-69
2023/05/14 03:25:11;;;;;;;28.83;18.90;;;10.80;99.90;;;;;;5003686;28;20049;-69
2023/05/14 03:27:37;;;;;;;28.23;18.87;;;10.70;99.90;;;;;;4981770;28;20048;-69
2023/05/14 03:30:03;;;;;;;27.97;19.50;;;10.70;99.90;;;;;;5020121;28;20511;-69
2023/05/14 03:32:29;;;;;;;27.03;18.30;;;10.70;99.90;;;;;;4996471;28;20049;-69
2023/05/14 03:34:55;;;;;;;30.57;18.83;;;10.70;99.90;;;;;;5016547;28;20527;-69
2023/05/14 03:37:21;;;;;;;27.33;18.57;;;10.70;99.90;;;;;;5002413;28;20467;-69
2023/05/14 03:39:46;;;;;;;30.17;18.27;;;10.80;99.90;;;;;;5001153;28;20042;-69
2023/05/14 03:42:12;;;;;;;26.63;17.63;;;10.70;99.90;;;;;;4994942;28;20768;-69
2023/05/14 03:44:38;;;;;;;32.77;18.63;;;10.70;99.90;;;;;;4966915;28;20073;-69
2023/05/14 03:47:03;;;;;;;23.63;16.67;;;10.70;99.90;;;;;;5000185;28;20074;-70
2023/05/14 03:49:29;;;;;;;24.40;17.63;;;10.70;99.90;;;;;;4982387;28;20050;-69
2023/05/14 03:51:57;;;;;;;27.33;17.53;;;10.80;99.90;;;;;;4995300;28;20313;-69
2023/05/14 03:54:22;;;;;;;26.57;17.50;;;10.80;99.90;;;;;;4979749;28;20046;-69
2023/05/14 03:56:48;;;;;;;26.70;16.97;;;10.90;99.90;;;;;;4984340;28;20164;-69
2023/05/14 03:59:14;;;;;;;24.40;16.90;;;10.80;99.90;;;;;;4981269;28;20042;-69
2023/05/14 04:01:39;;;;;;;23.73;17.20;;;10.80;99.90;;;;;;4981632;28;20049;-69
2023/05/14 04:04:05;;;;;;;28.30;17.73;;;10.80;99.90;;;;;;4967197;28;20065;-69
2023/05/14 04:06:32;;;;;;;26.50;17.80;;;10.70;99.90;;;;;;4967547;28;20042;-69
2023/05/14 04:08:57;;;;;;;27.43;18.23;;;10.70;99.90;;;;;;5014512;28;20105;-69
2023/05/14 04:11:23;;;;;;;28.10;17.43;;;10.70;99.90;;;;;;5002393;28;20065;-69
2023/05/14 04:13:49;;;;;;;30.20;17.73;;;10.70;99.90;;;;;;4984092;28;20512;-68
2023/05/14 04:16:14;;;;;;;25.00;16.87;;;10.70;99.90;;;;;;5017818;28;20038;-70
2023/05/14 04:18:40;;;;;;;27.37;17.33;;;10.80;99.90;;;;;;4982825;28;20041;-70
2023/05/14 04:21:06;;;;;;;26.30;17.07;;;10.80;99.90;;;;;;4994885;28;20461;-69
2023/05/14 04:23:31;;;;;;;27.63;16.73;;;10.80;99.90;;;;;;4978633;28;20062;-69
2023/05/14 04:25:57;;;;;;;26.07;17.37;;;10.80;99.90;;;;;;4996901;28;20050;-69
2023/05/14 04:28:23;;;;;;;25.53;17.30;;;10.90;99.90;;;;;;5011196;28;20052;-69
2023/05/14 04:30:49;;;;;;;27.43;17.30;;;10.90;99.90;;;;;;5015228;28;20061;-69
2023/05/14 04:33:15;;;;;;;26.70;18.17;;;10.90;99.90;;;;;;5018484;28;20340;-69
2023/05/14 04:35:42;;;;;;;28.97;17.67;;;10.90;99.90;;;;;;4981623;28;20046;-69
2023/05/14 04:38:08;;;;;;;26.07;18.03;;;11.00;99.90;;;;;;4983466;28;20064;-69
2023/05/14 04:40:34;;;;;;;27.00;18.13;;;11.00;99.90;;;;;;4996213;28;20050;-70
2023/05/14 04:43:00;;;;;;;24.70;17.13;;;11.00;99.90;;;;;;4998862;28;20044;-69
2023/05/14 04:45:26;;;;;;;25.47;17.53;;;11.10;99.90;;;;;;4999979;28;20044;-69
2023/05/14 04:47:51;;;;;;;32.33;18.53;;;11.10;99.90;;;;;;5016107;28;20549;-69
2023/05/14 04:50:17;;;;;;;32.30;19.27;;;11.10;99.90;;;;;;4966063;28;20060;-68
2023/05/14 04:52:43;;;;;;;27.87;18.33;;;11.20;99.90;;;;;;5015183;28;20041;-69
2023/05/14 04:55:09;;;;;;;27.10;17.47;;;11.30;99.90;;;;;;5019798;28;20051;-70
2023/05/14 04:57:35;;;;;;;27.73;18.13;;;11.30;99.90;;;;;;4984563;28;20045;-77
2023/05/14 05:00:01;;;;;;;29.93;18.73;;;11.40;99.90;;;;;;4980848;28;20053;-70
2023/05/14 05:02:26;;;;;;;27.27;17.63;;;11.40;99.90;;;;;;4991543;28;20128;-69
2023/05/14 05:04:52;;;;;;;27.30;17.80;;;11.50;99.90;;;;;;5006067;28;20053;-70
2023/05/14 05:07:18;;;;;;;26.87;17.50;;;11.50;99.90;;;;;;4983375;28;20073;-69
2023/05/14 05:09:43;;;;;;;29.00;17.13;;;11.50;99.90;;;;;;5009509;28;20054;-69
2023/05/14 05:12:09;;;;;;;26.50;17.40;;;11.60;99.90;;;;;;4995397;28;20054;-69
2023/05/14 05:14:35;;;;;;;26.53;17.53;;;11.50;99.90;;;;;;4980380;28;20050;-69
2023/05/14 05:17:00;;;;;;;25.73;17.77;;;11.50;99.90;;;;;;4984923;28;20277;-68
2023/05/14 05:19:26;;;;;;;23.27;16.63;;;11.50;99.90;;;;;;4990725;28;20048;-68
2023/05/14 05:21:52;;;;;;;28.03;17.60;;;11.50;99.90;;;;;;4994754;28;20081;-68
2023/05/14 05:24:17;;;;;;;27.23;17.23;;;11.60;99.90;;;;;;4987894;28;20137;-68
2023/05/14 05:26:43;;;;;;;23.53;16.77;;;11.60;99.90;;;;;;4998858;28;20049;-68
2023/05/14 05:29:09;;;;;;;27.10;17.77;;;11.70;99.90;;;;;;4968864;28;20540;-68
2023/05/14 05:31:35;;;;;;;24.83;16.83;;;11.80;99.90;;;;;;5003233;28;20038;-69
2023/05/14 05:34:02;;;;;;;24.77;17.63;;;11.90;99.90;;;;;;5007530;28;20053;-69
2023/05/14 05:36:27;;;;;;;29.33;17.53;;;11.90;99.90;;;;;;4997797;28;20046;-69
2023/05/14 05:38:55;;;;;;;25.17;17.13;;;12.00;99.90;;;;;;4993453;28;20063;-69
2023/05/14 05:41:21;;;;;;;27.13;16.87;;;12.00;99.90;;;;;;4965107;28;21016;-70
2023/05/14 05:43:47;;;;;;;26.20;18.00;;;12.00;99.90;;;;;;4981654;28;20053;-69
2023/05/14 05:46:12;;;;;;;24.93;16.63;;;12.00;99.90;;;;;;5011349;28;20038;-70
2023/05/14 05:48:38;;;;;;;25.13;16.73;;;12.10;99.90;;;;;;4999556;28;20045;-69
2023/05/14 05:51:04;;;;;;;24.40;16.20;;;12.20;99.90;;;;;;5012760;28;20046;-70
2023/05/14 05:53:29;;;;;;;25.70;17.00;;;12.30;99.90;;;;;;4992085;28;20042;-69
2023/05/14 05:55:55;;;;;;;22.70;16.37;;;12.30;99.90;;;;;;5004202;28;20046;-70
2023/05/14 05:58:21;;;;;;;26.50;16.15;;;12.40;99.90;;;;;;4991672;28;20078;-69
2023/05/14 06:00:47;;;;;;;23.90;15.53;;;12.50;99.90;;;;;;4946266;28;20042;-71
2023/05/14 06:03:13;;;;;;;24.30;15.80;;;12.70;99.90;;;;;;4998479;28;20054;-71
2023/05/14 06:05:39;;;;;;;26.40;16.40;;;12.80;99.90;;;;;;5021486;28;20116;-73
2023/05/14 06:08:05;;;;;;;22.90;16.02;;;12.90;99.90;;;;;;4975659;28;20045;-71
2023/05/14 06:10:31;;;;;;;25.83;16.77;;;12.90;99.90;;;;;;5018566;28;20558;-69
2023/05/14 06:12:56;;;;;;;21.27;15.10;;;13.00;99.90;;;;;;4999472;28;20097;-70
2023/05/14 06:15:22;;;;;;;23.15;16.10;;;13.10;99.90;;;;;;4998944;28;20057;-69
2023/05/14 06:17:48;;;;;;;28.45;16.48;;;13.10;99.90;;;;;;5022743;28;20054;-69
2023/05/14 06:20:14;;;;;;;25.85;15.60;;;13.10;99.90;;;;;;5010904;28;20522;-70
2023/05/14 06:22:39;;;;;;;24.70;15.48;;;13.20;99.90;;;;;;4983609;28;20062;-70
2023/05/14 06:25:06;;;;;;;21.52;14.60;;;13.30;99.90;;;;;;4999827;28;20129;-70
2023/05/14 06:27:32;;;;;;;18.92;14.82;;;13.50;99.90;;;;;;5000231;28;20061;-70
2023/05/14 06:29:57;;;;;;;23.92;15.07;;;13.50;99.90;;;;;;4996287;28;20056;-70
2023/05/14 06:32:23;;;;;;;22.02;14.20;;;13.60;99.90;;;;;;4993290;28;20137;-70
2023/05/14 06:34:49;;;;;;;25.63;14.80;;;13.70;99.90;;;;;;4962366;28;20133;-69
2023/05/14 06:37:15;;;;;;;24.42;14.25;;;13.80;99.90;;;;;;4994897;28;20042;-70
2023/05/14 06:39:47;;;;;;;24.02;15.15;;;13.80;99.90;;;;;;5014979;28;20436;-70
2023/05/14 06:42:12;;;;;;;24.02;14.48;;;13.90;99.90;;;;;;5001721;28;20042;-70
2023/05/14 06:44:38;;;;;;;19.38;14.23;;;14.10;99.90;;;;;;4953845;28;20050;-69
2023/05/14 06:47:07;;;;;;;18.88;13.50;;;14.20;99.90;;;;;;5017571;28;20041;-70
2023/05/14 06:49:36;;;;;;;22.17;14.20;;;14.30;99.90;;;;;;5006691;28;20053;-70
2023/05/14 06:52:02;;;;;;;20.45;13.75;;;14.40;99.90;;;;;;5018100;28;20053;-69
2023/05/14 06:54:28;;;;;;;19.10;13.07;;;14.50;99.90;;;;;;5011767;28;20177;-70
2023/05/14 06:56:54;;;;;;;18.15;14.02;;;14.60;99.90;;;;;;4976519;28;20133;-70
2023/05/14 06:59:20;;;;;;;22.45;13.52;;;14.70;99.90;;;;;;5003394;28;20085;-70
2023/05/14 07:01:46;;;;;;;18.55;13.20;;;14.80;99.90;;;;;;5002047;28;20041;-70
2023/05/14 07:04:11;;;;;;;20.25;13.43;;;14.80;99.90;;;;;;5002219;28;20134;-70
2023/05/14 07:06:37;;;;;;;20.38;13.73;;;15.00;99.90;;;;;;4982109;28;20041;-70
2023/05/14 07:09:03;;;;;;;19.23;12.43;;;15.10;99.90;;;;;;4973031;28;20081;-70
2023/05/14 07:11:29;;;;;;;17.73;13.07;;;15.30;99.90;;;;;;5017592;28;20052;-70
2023/05/14 07:13:54;;;;;;;15.60;11.32;;;15.30;99.90;;;;;;5021729;28;20563;-70
2023/05/14 07:16:20;;;;;;;20.10;12.85;;;15.40;99.90;;;;;;4981161;28;20105;-70
2023/05/14 07:18:46;;;;;;;21.83;12.88;;;15.50;99.90;;;;;;4978273;28;20038;-70
2023/05/14 07:21:11;;;;;;;21.67;11.63;;;15.50;99.90;;;;;;5004906;28;20435;-70
2023/05/14 07:23:37;;;;;;;18.70;11.98;;;15.40;99.90;;;;;;4999965;28;20053;-71
2023/05/14 07:26:06;;;;;;;19.48;13.55;;;15.40;99.90;;;;;;4983959;28;20143;-71
2023/05/14 07:28:33;;;;;;;22.50;12.60;;;15.40;99.90;;;;;;5002800;28;20037;-71
2023/05/14 07:30:59;;;;;;;21.48;12.93;;;15.40;99.90;;;;;;5001247;28;20127;-71
2023/05/14 07:33:25;;;;;;;16.63;12.55;;;15.50;99.90;;;;;;4983809;28;20058;-70
2023/05/14 07:35:51;;;;;;;21.33;13.43;;;15.50;99.90;;;;;;4990891;28;20050;-71
2023/05/14 07:38:18;;;;;;;19.10;13.25;;;15.50;99.90;;;;;;4998998;28;20133;-71
2023/05/14 07:40:44;;;;;;;18.10;13.13;;;15.50;99.90;;;;;;4991202;28;20060;-70
2023/05/14 07:43:10;;;;;;;19.85;13.05;;;15.60;99.90;;;;;;5001463;28;20525;-69
2023/05/14 07:45:38;;;;;;;19.65;13.60;;;15.70;99.90;;;;;;5023392;28;20042;-69
2023/05/14 07:48:04;;;;;;;23.20;13.88;;;15.90;99.90;;;;;;4996289;28;20070;-70
2023/05/14 07:50:30;;;;;;;14.02;12.55;;;15.90;99.90;;;;;;4988010;28;20061;-71
2023/05/14 07:52:56;;;;;;;21.35;12.93;;;15.90;99.90;;;;;;4979565;28;20042;-71
2023/05/14 07:55:22;;;;;;;16.85;12.43;;;15.90;99.90;;;;;;4979557;28;20089;-71
2023/05/14 07:57:47;;;;;;;16.17;12.00;;;15.90;99.90;;;;;;5006118;28;20065;-70
2023/05/14 08:00:14;;;;;;;16.95;11.93;;;16.10;99.90;;;;;;4987090;28;20042;-71
2023/05/14 08:02:41;;;;;;;18.05;12.52;;;16.20;99.90;;;;;;5030266;28;20053;-71
2023/05/14 08:05:07;;;;;;;15.52;12.65;;;16.20;99.90;;;;;;4985000;28;20041;-71
2023/05/14 08:07:33;;;;;;;18.35;13.45;;;16.30;99.90;;;;;;4992997;28;20050;-71
2023/05/14 08:09:59;;;;;;;16.23;13.38;;;16.30;99.90;;;;;;5000539;28;20096;-71
2023/05/14 08:12:25;;;;;;;15.48;11.52;;;16.40;99.90;;;;;;5016435;28;20053;-71
2023/05/14 08:14:51;;;;;;;15.60;12.55;;;16.50;99.90;;;;;;5004682;28;20048;-71
2023/05/14 08:17:17;;;;;;;17.40;12.20;;;16.40;99.90;;;;;;5021930;28;20125;-71
2023/05/14 08:19:43;;;;;;;17.88;12.27;;;16.30;99.90;;;;;;5007912;28;20042;-71
2023/05/14 08:22:09;;;;;;;18.52;11.80;;;16.40;99.90;;;;;;4970451;28;20050;-71
2023/05/14 08:24:34;;;;;;;18.83;12.63;;;16.50;99.90;;;;;;4986576;28;20046;-71
2023/05/14 08:27:01;;;;;;;18.15;12.65;;;16.60;99.90;;;;;;5002299;28;20085;-71
2023/05/14 08:29:26;;;;;;;18.92;12.90;;;16.70;99.90;;;;;;4995518;28;20043;-71
2023/05/14 08:31:52;;;;;;;19.45;14.57;;;16.80;99.90;;;;;;4999110;28;20045;-70
2023/05/14 08:34:18;;;;;;;20.48;14.98;;;16.90;99.90;;;;;;4985944;28;20061;-71
2023/05/14 08:36:44;;;;;;;25.52;15.57;;;17.10;99.90;;;;;;5005306;28;20069;-71
2023/05/14 08:39:09;;;;;;;20.65;14.40;;;17.40;99.90;;;;;;4995477;28;20046;-71
2023/05/14 08:41:36;;;;;;;18.88;14.73;;;17.60;99.90;;;;;;5004169;28;20459;-71
2023/05/14 08:44:45;;;;;;;19.48;14.10;;;17.70;99.90;;;;;;4999995;28;20054;-71
2023/05/14 08:47:12;;;;;;;18.85;14.38;;;17.70;99.90;;;;;;4980892;28;20058;-71
2023/05/14 08:49:43;;;;;;;18.52;15.25;;;17.90;99.90;;;;;;4975627;28;20037;-70
2023/05/14 08:52:09;;;;;;;19.15;14.52;;;17.90;99.90;;;;;;5007429;28;20405;-71
2023/05/14 08:54:35;;;;;;;22.10;14.88;;;17.90;99.90;;;;;;5019612;28;20103;-71
2023/05/14 08:57:04;;;;;;;17.63;14.63;;;17.80;99.90;;;;;;5017858;28;20568;-71
2023/05/14 08:59:31;;;;;;;17.85;13.85;;;17.60;99.90;;;;;;5015703;28;20046;-70
2023/05/14 09:02:01;;;;;;;21.15;14.50;;;17.60;99.90;;;;;;5002359;28;20053;-70
2023/05/14 09:04:27;;;;;;;19.60;15.43;;;17.50;99.90;;;;;;5008304;28;20472;-71
2023/05/14 09:06:53;;;;;;;23.23;14.77;;;17.50;99.90;;;;;;4977517;28;20057;-70
2023/05/14 09:09:23;;;;;;;18.30;15.23;;;17.50;99.90;;;;;;5024342;28;20120;-71
2023/05/14 09:11:50;;;;;;;17.25;14.95;;;17.40;99.90;;;;;;5020419;28;20053;-70
2023/05/14 09:14:16;;;;;;;18.95;15.63;;;17.40;99.90;;;;;;4981455;28;20037;-71
2023/05/14 09:16:47;;;;;;;18.83;15.02;;;17.40;99.90;;;;;;4966001;28;20132;-71
2023/05/14 09:19:14;;;;;;;21.25;15.27;;;17.50;99.90;;;;;;4994219;28;20061;-73
2023/05/14 09:21:40;;;;;;;18.98;15.40;;;17.50;99.90;;;;;;5021756;28;20876;-71
2023/05/14 09:24:07;;;;;;;20.17;16.58;;;17.60;99.90;;;;;;5024491;28;20085;-68
2023/05/14 09:26:34;;;;;;;20.42;15.77;;;17.60;99.90;;;;;;4998569;28;20046;-68
2023/05/14 09:29:00;;;;;;;17.85;14.30;;;17.80;99.90;;;;;;5025526;28;20056;-69
2023/05/14 09:31:30;;;;;;;19.15;14.77;;;18.00;99.90;;;;;;5000120;28;20041;-69
2023/05/14 09:33:57;;;;;;;19.27;15.07;;;18.10;99.90;;;;;;4996146;28;20038;-70
2023/05/14 09:36:25;;;;;;;21.77;14.57;;;18.30;99.90;;;;;;5027767;28;20049;-70
2023/05/14 09:39:02;;;;;;;17.23;13.52;;;18.50;99.90;;;;;;4999998;28;20045;-70
2023/05/14 09:41:27;;;;;;;14.75;12.20;;;18.80;99.90;;;;;;5014887;28;20508;-70
2023/05/14 09:43:55;;;;;;;15.10;11.25;;;19.00;99.90;;;;;;4992685;28;20237;-70
2023/05/14 09:46:22;;;;;;;12.65;9.60;;;18.90;99.90;;;;;;5022370;28;20041;-71
2023/05/14 09:48:48;;;;;;;11.00;9.70;;;18.90;99.90;;;;;;4987354;28;20042;-70
2023/05/14 09:51:16;;;;;;;11.77;10.15;;;18.90;99.90;;;;;;5005479;28;20053;-71
2023/05/14 09:53:43;;;;;;;14.43;11.25;;;19.00;99.90;;;;;;5001637;28;20046;-70
2023/05/14 09:56:09;;;;;;;12.60;11.38;;;19.10;99.90;;;;;;5025723;28;20042;-70
2023/05/14 09:58:35;;;;;;;12.38;11.07;;;19.10;99.90;;;;;;5004802;28;20069;-70
2023/05/14 10:01:01;;;;;;;14.73;10.65;;;19.20;99.90;;;;;;5021778;28;20038;-70
2023/05/14 10:03:29;;;;;;;14.05;10.95;;;19.20;99.90;;;;;;5009314;28;20057;-70
2023/05/14 10:06:00;;;;;;;9.90;8.98;;;19.20;99.90;;;;;;5023084;28;20057;-70
2023/05/14 10:08:40;;;;;;;10.57;9.35;;;19.20;99.90;;;;;;4983881;28;20093;-70
2023/05/14 10:11:12;;;;;;;10.75;9.65;;;19.40;99.90;;;;;;4943992;28;20039;-70
2023/05/14 10:13:41;;;;;;;10.35;8.65;;;19.50;99.90;;;;;;4999725;28;20046;-70
2023/05/14 10:16:20;;;;;;;11.60;10.40;;;19.70;99.90;;;;;;5013814;28;20045;-70
2023/05/14 10:18:51;;;;;;;14.63;9.75;;;19.70;99.90;;;;;;4994645;28;20054;-71
2023/05/14 10:21:20;;;;;;;11.50;9.57;;;19.80;99.90;;;;;;4996144;28;20052;-70
2023/05/14 10:23:47;;;;;;;10.57;8.10;;;20.10;99.90;;;;;;4996649;28;20064;-70
2023/05/14 10:26:14;;;;;;;10.10;8.77;;;20.10;99.90;;;;;;4978394;28;20088;-70
2023/05/14 10:28:40;;;;;;;14.15;9.98;;;20.20;99.90;;;;;;4979489;28;20045;-70
2023/05/14 10:31:09;;;;;;;9.02;8.13;;;20.40;99.90;;;;;;5015658;28;20037;-70
2023/05/14 10:33:55;;;;;;;10.02;8.32;;;20.60;99.90;;;;;;4996733;28;20045;-70
2023/05/14 10:36:21;;;;;;;12.27;8.10;;;20.70;99.90;;;;;;4996782;28;20046;-70
2023/05/14 10:38:56;;;;;;;8.85;7.88;;;20.70;99.90;;;;;;4995042;28;20050;-69
2023/05/14 10:41:21;;;;;;;11.82;9.57;;;20.70;99.90;;;;;;5023886;28;20050;-70
2023/05/14 10:43:47;;;;;;;12.20;8.80;;;20.60;99.90;;;;;;5011487;28;20061;-70
2023/05/14 10:46:13;;;;;;;8.40;7.53;;;20.70;99.90;;;;;;4991864;28;20052;-70
2023/05/14 10:48:43;;;;;;;11.40;7.63;;;21.00;99.90;;;;;;5007093;28;20567;-70
2023/05/14 10:51:10;;;;;;;9.68;7.80;;;21.20;99.90;;;;;;5027204;28;20493;-70
2023/05/14 10:53:38;;;;;;;8.10;7.28;;;21.20;99.90;;;;;;5008450;28;20052;-70
2023/05/14 10:56:09;;;;;;;8.95;7.03;;;21.10;97.80;;;;;;5014273;28;20405;-70
2023/05/14 10:58:41;;;;;;;7.57;6.22;;;21.00;99.90;;;;;;5027120;28;20056;-70
2023/05/14 11:01:07;;;;;;;11.35;7.05;;;21.00;99.50;;;;;;4998934;28;20050;-70
2023/05/14 11:03:42;;;;;;;9.63;6.47;;;21.10;94.60;;;;;;5016527;28;20042;-70
2023/05/14 11:06:09;;;;;;;6.55;5.95;;;21.10;83.00;;;;;;5012248;28;20049;-70
2023/05/14 11:08:35;;;;;;;11.18;6.50;;;21.10;80.90;;;;;;4979855;28;20509;-70
2023/05/14 11:11:01;;;;;;;7.13;5.70;;;21.20;91.10;;;;;;5021391;28;20461;-70
2023/05/14 11:13:27;;;;;;;6.53;5.90;;;21.40;87.60;;;;;;5000915;28;20058;-70
2023/05/14 11:15:54;;;;;;;9.93;6.68;;;21.70;86.90;;;;;;4997337;28;20050;-70
2023/05/14 11:18:27;;;;;;;8.90;5.90;;;21.70;83.30;;;;;;5010768;28;20057;-70
2023/05/14 11:20:57;;;;;;;7.13;5.53;;;21.80;77.90;;;;;;5001268;28;20049;-70
2023/05/14 11:23:24;;;;;;;6.57;5.97;;;21.80;78.60;;;;;;5006392;28;20601;-69
2023/05/14 11:25:54;;;;;;;6.65;5.82;;;21.90;84.30;;;;;;5004250;28;20058;-70
2023/05/14 11:28:24;;;;;;;7.35;5.30;;;22.10;80.10;;;;;;5008873;28;20301;-69
2023/05/14 11:30:51;;;;;;;7.70;5.57;;;22.10;75.70;;;;;;5015342;28;20128;-69
2023/05/14 11:33:18;;;;;;;6.45;5.85;;;22.00;75.80;;;;;;5004866;28;20050;-69
2023/05/14 11:35:45;;;;;;;6.60;5.55;;;22.00;74.10;;;;;;4997176;28;20049;-69
2023/05/14 11:38:18;;;;;;;6.72;5.80;;;21.90;72.20;;;;;;5009134;28;20053;-69
2023/05/14 11:40:54;;;;;;;5.72;5.22;;;22.00;72.50;;;;;;5024748;28;20038;-69
2023/05/14 11:43:22;;;;;;;6.63;5.00;;;22.10;70.10;;;;;;5004507;28;20046;-69
2023/05/14 11:45:52;;;;;;;6.25;5.30;;;22.30;74.20;;;;;;4998778;28;20052;-69
2023/05/14 11:48:19;;;;;;;5.97;4.32;;;22.40;71.20;;;;;;5002533;28;20520;-69
2023/05/14 11:50:48;;;;;;;7.43;4.90;;;22.50;69.90;;;;;;5009979;28;20325;-69
2023/05/14 11:53:18;;;;;;;7.85;4.72;;;22.60;68.00;;;;;;5005856;28;20049;-68
2023/05/14 11:55:46;;;;;;;8.57;4.60;;;22.70;66.90;;;;;;5006853;28;20110;-69
2023/05/14 11:58:12;;;;;;;7.85;4.70;;;22.90;67.60;;;;;;5011778;28;20442;-69
2023/05/14 12:00:39;;;;;;;8.18;5.00;;;23.00;65.40;;;;;;4985804;28;20069;-69
2023/05/14 12:03:05;;;;;;;6.70;4.88;;;23.00;64.50;;;;;;5003851;28;20050;-69
2023/05/14 12:05:30;;;;;;;8.55;4.68;;;22.90;64.60;;;;;;5025356;28;20038;-69
2023/05/14 12:07:56;;;;;;;5.78;3.92;;;22.90;66.20;;;;;;5019525;28;20121;-69
2023/05/14 12:10:22;;;;;;;6.05;4.80;;;22.90;63.80;;;;;;5035425;28;20060;-69
2023/05/14 12:12:48;;;;;;;7.57;5.18;;;22.90;64.60;;;;;;4997898;28;20045;-69
2023/05/14 12:15:18;;;;;;;6.13;5.10;;;22.80;65.10;;;;;;4995985;28;20053;-69
2023/05/14 12:17:52;;;;;;;6.00;5.35;;;23.00;65.60;;;;;;4995086;28;20050;-69
2023/05/14 12:20:18;;;;;;;5.03;4.63;;;23.00;64.00;;;;;;4996162;28;20053;-69
2023/05/14 12:22:44;;;;;;;7.53;5.90;;;22.90;62.70;;;;;;5012283;28;20057;-69
2023/05/14 12:25:15;;;;;;;7.00;4.60;;;22.90;63.20;;;;;;4983484;28;20083;-69
2023/05/14 12:27:43;;;;;;;6.32;5.70;;;22.90;63.10;;;;;;4986075;28;20061;-69
2023/05/14 12:30:11;;;;;;;6.50;5.00;;;22.90;64.10;;;;;;5012926;28;20049;-69